»·PEaware :: N13W KRNM-KPMD

N13W :: KRNM-KPMD

FLIGHT INFORMATION

Flight Status: Arrived
Operator: Privately registered:
United States
More flights under this callsign
Pilot: Will N. (25416)
Aircraft: SOCATA TBM-900
(TBM9)
More flights by this aircraft type
Origin: KRNM Ramona
United States
Destination: KPMD Palmdale AF Plant 42
United States
More flights between these airports :: More routes between these airports
Route: ROBNN V186 TIFNI POM V197 PMD
File this flight plan on PilotEdge
Remarks:
Altitude:
(Current/Filed)
12,000ft
Speed:
(Current/Filed)
260kts
Departed: 01-Feb-21 08:55 PM
Arrived: 01-Feb-21 09:30 PM
Distance/Time
Traveled:
111nm/0:35
Distance/Time
To Go:
Arrived

Flight Plot

Page will automatically refresh every two minutes.

Flight plan parsing failed; only flown route is shown


Map Options




Map Legend


Flown Route
Filed Route
Departure Airport
Arrival Airport
Navaid (VOR, NDB)
Fix

Horizontal Profiles

Position Reports

Time Latitude Longitude Heading Altitude Ground
Speed
01-Feb-21 20:39 33.039814 -116.911484 122 1395ft 0kts
01-Feb-21 20:40 33.039814 -116.911484 122 1395ft 0kts
01-Feb-21 20:41 33.039814 -116.911484 122 1395ft 0kts
01-Feb-21 20:42 33.039814 -116.911484 122 1395ft 0kts
01-Feb-21 20:43 33.039814 -116.911484 122 1395ft 0kts
01-Feb-21 20:44 33.039814 -116.911484 122 1395ft 0kts
01-Feb-21 20:45 33.039814 -116.911484 122 1395ft 0kts
01-Feb-21 20:46 33.039814 -116.911484 122 1395ft 0kts
01-Feb-21 20:47 33.039814 -116.911484 122 1395ft 0kts
01-Feb-21 20:48 33.039814 -116.911484 122 1395ft 0kts
01-Feb-21 20:49 33.039814 -116.911484 122 1395ft 0kts
01-Feb-21 20:50 33.039814 -116.911484 122 1395ft 0kts
01-Feb-21 20:51 33.039709 -116.911292 127 1395ft 4kts
01-Feb-21 20:52 33.038853 -116.908388 103 1391ft 13kts
01-Feb-21 20:53 33.038476 -116.907450 178 1387ft 0kts
01-Feb-21 20:54 33.038302 -116.909280 280 1392ft 52kts
01-Feb-21 20:55 33.043837 -116.954852 279 2468ft 154kts
01-Feb-21 20:56 33.050559 -117.017339 279 3110ft 172kts
01-Feb-21 20:57 33.063969 -117.067203 340 4583ft 150kts
01-Feb-21 20:58 33.104751 -117.078812 345 6117ft 142kts
01-Feb-21 20:59 33.146534 -117.089362 345 7357ft 152kts
01-Feb-21 21:00 33.191434 -117.100508 345 8717ft 161kts
01-Feb-21 21:01 33.238106 -117.110801 346 10356ft 166kts
01-Feb-21 21:02 33.286616 -117.121076 346 11757ft 173kts
01-Feb-21 21:03 33.334730 -117.131303 346 11987ft 221kts
01-Feb-21 21:04 33.404282 -117.146026 347 11966ft 245kts
01-Feb-21 21:05 33.477855 -117.162804 331 11969ft 246kts
01-Feb-21 21:06 33.536419 -117.210972 322 11991ft 245kts
01-Feb-21 21:07 33.596481 -117.260918 322 11992ft 245kts
01-Feb-21 21:08 33.652025 -117.307175 322 12006ft 245kts
01-Feb-21 21:09 33.709255 -117.354913 322 12006ft 245kts
01-Feb-21 21:10 33.767228 -117.403351 322 12007ft 245kts
01-Feb-21 21:11 33.827029 -117.453407 322 12003ft 246kts
01-Feb-21 21:12 33.885866 -117.502747 322 12002ft 251kts
01-Feb-21 21:13 33.932497 -117.570023 291 11999ft 250kts
01-Feb-21 21:14 33.961906 -117.653373 290 11997ft 244kts
01-Feb-21 21:15 33.990892 -117.735701 290 11996ft 243kts
01-Feb-21 21:16 34.048827 -117.777146 341 11996ft 257kts
01-Feb-21 21:17 34.117336 -117.806422 334 11992ft 255kts
01-Feb-21 21:18 34.183408 -117.839325 334 11990ft 249kts
01-Feb-21 21:19 34.247364 -117.871218 337 11868ft 243kts
01-Feb-21 21:20 34.311171 -117.903084 337 11869ft 229kts
01-Feb-21 21:21 34.374484 -117.934759 337 11086ft 226kts
01-Feb-21 21:22 34.433346 -117.971021 313 9465ft 218kts
01-Feb-21 21:23 34.473751 -118.022068 311 7950ft 203kts
01-Feb-21 21:24 34.510398 -118.071603 311 6438ft 194kts
01-Feb-21 21:25 34.546158 -118.119925 311 4934ft 191kts
01-Feb-21 21:26 34.577021 -118.152434 14 3932ft 91kts
01-Feb-21 21:27 34.595055 -118.126399 56 3577ft 101kts
01-Feb-21 21:28 34.611260 -118.100319 51 2986ft 87kts
01-Feb-21 21:29 34.623103 -118.082064 188 2522ft 0kts
01-Feb-21 21:30 34.621079 -118.082667 109 2526ft 16kts
01-Feb-21 21:31 34.620457 -118.082564 315 2527ft 0kts

Navigation Log

Ident Type
Flight plan parsing failed, navigation log unavailable